RJKB(METAR)
05/21 18:00
RJKB 210900Z 36013KT 9999 FEW015 SCTXXX 23/20 Q1005 RMK A2969=
戻る
トップページへ戻る
IMOC Co,.Ltd.